Terminal Aerodrome Forecast
Issued by NWS

Home | Current Version | Previous Version | Text Only | Print | Product List | Glossary On
Versions: 1 2 3 4 5 6 7 8 9 10 11 12 13 14 15 16 17 18 19 20 21 22 23 24
000
FTUS43 KJKL 171259 AAA
TAFSJS
TAF AMD
KSJS 171259Z 1713/1812 19007G15KT P6SM -SHRA SCT020 OVC050
      WS020/21035KT
      TEMPO 1713/1716 4SM -SHRA BR BKN015
     FM171600 22011G23KT P6SM VCSH OVC025
     FM172300 24007KT P6SM VCSH OVC015
     FM180600 27005KT 3SM BR OVC010=

USA.gov is the U.S. government's official web portal to all federal, state and local government web resources and services.